Connexion S'enregistrer

Connexion à votre compte

Identifiant
Mot de passe
Maintenir la connexion active sur ce site

Créer un compte

Pour valider ce formulaire, vous devez remplir tous les champs.
Nom
Identifiant
Mot de passe
Répétez le mot de passe
Adresse e-mail
Répétez l'adresse e-mail

Nous contacter

 Téléphone : +33 (0)4 79 54 41 81

Coordonnées détaillées et accès : cliquez ici

 
LFLB °C
    Ferienhaus Ostsee
[source: ADDS]
METAR
LFLB 220400Z AUTO 00000KT 9999 FEW048 BKN056 BKN074 11/09 Q1023 TEMPO 0500 BCFG =
TAF
TAF LFLB 212300Z 2200/2224 VRB05KT 9999 SCT030 BKN050 PROB30 TEMPO 2200/2208 0500 BCFG PROB40 TEMPO 2209/2221 VRB15G25KT 3000 SHRA BKN025TCU =
SR / SS: 06:03 / 16:38 UTC (Lever/Coucher du soleil le 2017-10-22)
JSN Boot template designed by JoomlaShine.com